Time;durP1;ratioP1;P1;durP2;ratioP2;P2;SDS_P1;SDS_P2;PMS_P1;PMS_P2;Temp;Humidity;BMP_temperature;BMP_pressure;BME280_temperature;BME280_humidity;BME280_pressure;Samples;Min_cycle;Max_cycle;Signal;HPM_P1;HPM_P2
2021/09/14 00:02:01;;;;;;;10.37;6.37;;;;;;;30.26;53.40;97902.50;5065463;28;20207;-66
2021/09/14 00:04:28;;;;;;;10.43;6.27;;;;;;;30.22;53.61;97907.09;5070575;28;20202;-65
2021/09/14 00:06:56;;;;;;;8.77;6.23;;;;;;;30.23;53.24;97905.13;5080834;28;20231;-65
2021/09/14 00:09:23;;;;;;;7.93;6.60;;;;;;;30.13;53.86;97899.97;5084748;28;20230;-65
2021/09/14 00:11:50;;;;;;;11.43;6.50;;;;;;;30.16;53.54;97902.06;5074444;28;20271;-65
2021/09/14 00:14:17;;;;;;;8.10;6.20;;;;;;;30.20;53.37;97894.78;5070921;28;20207;-65
2021/09/14 00:16:46;;;;;;;8.77;5.97;;;;;;;29.96;53.90;97903.59;5076203;28;20230;-66
2021/09/14 00:19:15;;;;;;;7.70;5.90;;;;;;;30.15;53.49;97897.72;5083430;28;20205;-66
2021/09/14 00:21:42;;;;;;;7.10;6.07;;;;;;;30.15;53.54;97897.72;5071033;28;20200;-66
2021/09/14 00:24:09;;;;;;;6.40;5.57;;;;;;;30.07;53.36;97893.81;5069803;28;20208;-66
2021/09/14 00:26:37;;;;;;;7.83;5.57;;;;;;;29.97;54.04;97902.44;5071162;28;20250;-65
2021/09/14 00:29:04;;;;;;;7.80;5.90;;;;;;;29.92;54.05;97899.84;5083223;28;20231;-66
2021/09/14 00:31:32;;;;;;;8.40;5.90;;;;;;;29.79;54.55;97900.06;5082580;28;20222;-66
2021/09/14 00:34:01;;;;;;;10.10;5.70;;;;;;;29.83;54.70;97893.56;5070696;28;20653;-65
2021/09/14 00:36:28;;;;;;;6.13;5.47;;;;;;;29.96;53.87;97895.31;5079389;28;20242;-65
2021/09/14 00:38:56;;;;;;;8.67;5.90;;;;;;;30.07;53.35;97887.50;5078270;28;20207;-65
2021/09/14 00:41:23;;;;;;;8.73;4.97;;;;;;;30.02;53.38;97898.69;5080101;28;20215;-65
2021/09/14 00:43:56;;;;;;;6.60;5.37;;;;;;;29.82;54.27;97900.22;5070690;28;20205;-65
2021/09/14 00:46:23;;;;;;;6.77;5.70;;;;;;;29.91;53.69;97892.75;5078845;28;20226;-65
2021/09/14 00:48:51;;;;;;;8.93;5.37;;;;;;;29.90;53.54;97895.81;5067266;28;20212;-65
2021/09/14 00:51:20;;;;;;;5.90;5.30;;;;;;;29.72;54.91;97884.03;5078397;28;20569;-65
2021/09/14 00:53:48;;;;;;;7.13;5.40;;;;;;;29.82;54.08;97880.13;5070892;28;20211;-65
2021/09/14 00:56:15;;;;;;;8.43;5.73;;;;;;;29.63;54.72;97883.25;5070192;28;20207;-65
2021/09/14 00:58:42;;;;;;;7.43;5.40;;;;;;;29.88;53.77;97878.81;5078182;28;20202;-65
2021/09/14 01:01:10;;;;;;;6.83;5.30;;;;;;;29.37;55.67;97878.88;5079996;28;20214;-65
2021/09/14 01:03:37;;;;;;;7.10;4.90;;;;;;;28.87;56.35;97873.03;5069284;28;20209;-65
2021/09/14 01:06:06;;;;;;;6.30;4.80;;;;;;;29.42;54.63;97870.47;5073449;28;20249;-65
2021/09/14 01:08:36;;;;;;;7.20;5.10;;;;;;;29.94;53.16;97870.06;5080876;28;20667;-65
2021/09/14 01:11:04;;;;;;;6.60;5.13;;;;;;;29.95;52.58;97873.63;5083959;28;20228;-66
2021/09/14 01:13:31;;;;;;;7.70;4.60;;;;;;;29.69;53.19;97875.66;5074434;28;20840;-65
2021/09/14 01:16:06;;;;;;;7.33;5.20;;;;;;;30.00;51.75;97868.72;5077933;28;20201;-65
2021/09/14 01:18:33;;;;;;;8.97;4.80;;;;;;;29.97;51.95;97880.41;5090714;28;20216;-65
2021/09/14 01:21:01;;;;;;;6.63;4.63;;;;;;;30.18;51.36;97877.75;5082458;28;20197;-65
2021/09/14 01:23:29;;;;;;;5.70;4.70;;;;;;;30.21;50.92;97874.38;5073008;28;20217;-65
2021/09/14 01:25:57;;;;;;;7.63;5.03;;;;;;;30.29;50.36;97868.00;5075604;28;20211;-65
2021/09/14 01:28:24;;;;;;;10.00;4.83;;;;;;;30.12;50.75;97868.09;5082463;28;20227;-65
2021/09/14 01:30:51;;;;;;;10.43;6.47;;;;;;;29.94;51.45;97872.81;5085442;28;20233;-66
2021/09/14 01:33:18;;;;;;;7.57;5.80;;;;;;;29.89;51.31;97872.97;5073729;28;20219;-65
2021/09/14 01:35:46;;;;;;;6.47;5.30;;;;;;;29.93;51.60;97870.38;5077464;28;20199;-65
2021/09/14 01:38:13;;;;;;;6.80;5.60;;;;;;;29.32;53.47;97865.28;5080301;28;20245;-65
2021/09/14 01:40:46;;;;;;;6.00;4.67;;;;;;;29.71;52.34;97868.69;5088948;28;20218;-65
2021/09/14 01:43:14;;;;;;;6.83;5.30;;;;;;;29.73;52.16;97868.31;5067759;28;20204;-65
2021/09/14 01:45:41;;;;;;;7.83;5.53;;;;;;;29.73;51.91;97860.06;5076023;28;20206;-65
2021/09/14 01:48:08;;;;;;;7.00;5.03;;;;;;;29.68;52.12;97866.56;5088712;28;20240;-65
2021/09/14 01:50:35;;;;;;;6.70;5.83;;;;;;;29.56;52.76;97865.63;5081475;28;20598;-65
2021/09/14 01:53:04;;;;;;;6.43;4.63;;;;;;;29.77;51.84;97869.28;5075587;28;20203;-65
2021/09/14 01:55:31;;;;;;;7.43;5.40;;;;;;;29.50;52.88;97867.69;5073153;28;20202;-65
2021/09/14 01:58:00;;;;;;;7.67;5.20;;;;;;;29.48;52.67;97863.66;5085582;28;20577;-64
2021/09/14 02:00:30;;;;;;;7.13;4.90;;;;;;;28.66;55.84;97865.72;5084803;28;20236;-64
2021/09/14 02:08:43;;;;;;;8.83;5.10;;;;;;;29.25;53.63;97878.72;5072393;28;20224;-65
2021/09/14 02:33:55;;;;;;;9.50;5.73;;;;;;;29.18;54.10;97862.72;5035026;28;20208;-65
2021/09/14 02:42:17;;;;;;;7.07;5.20;;;;;;;28.73;56.20;97864.09;5047137;28;20193;-65
2021/09/14 03:01:01;;;;;;;9.47;5.67;;;;;;;28.69;56.62;97865.09;5071792;28;20255;-65
2021/09/14 03:03:29;;;;;;;6.27;5.40;;;;;;;29.36;54.30;97860.75;5071559;28;20218;-65
2021/09/14 03:05:56;;;;;;;8.40;5.60;;;;;;;29.30;54.54;97859.31;5080771;28;20205;-65
2021/09/14 03:08:24;;;;;;;6.97;5.40;;;;;;;29.17;55.36;97854.78;5083018;28;20222;-66
2021/09/14 03:10:51;;;;;;;8.03;5.80;;;;;;;29.65;53.46;97858.16;5084593;28;20227;-65
2021/09/14 03:13:18;;;;;;;7.77;5.37;;;;;;;29.57;53.33;97856.22;5084876;28;20205;-65
2021/09/14 03:15:46;;;;;;;9.90;5.83;;;;;;;29.56;53.05;97860.94;5081997;28;20653;-65
2021/09/14 03:18:13;;;;;;;6.60;5.80;;;;;;;29.67;52.92;97855.88;5078940;28;20718;-65
2021/09/14 03:20:42;;;;;;;7.73;5.87;;;;;;;29.69;52.87;97857.19;5071976;28;20198;-65
2021/09/14 03:23:09;;;;;;;7.83;5.43;;;;;;;29.52;53.71;97853.63;5072608;28;20240;-65
2021/09/14 03:25:36;;;;;;;6.63;5.53;;;;;;;29.74;52.93;97856.22;5088586;28;20217;-65
2021/09/14 03:28:03;;;;;;;10.00;5.43;;;;;;;29.72;52.98;97850.22;5070951;28;20231;-65
2021/09/14 03:30:31;;;;;;;10.00;6.33;;;;;;;29.69;52.84;97853.63;5088259;28;20725;-65
2021/09/14 03:32:58;;;;;;;6.93;5.43;;;;;;;29.77;52.59;97847.28;5080094;28;20678;-65
2021/09/14 03:35:25;;;;;;;7.83;5.93;;;;;;;30.09;51.45;97854.94;5075764;28;20686;-65
2021/09/14 03:37:54;;;;;;;7.60;5.80;;;;;;;29.47;53.50;97854.59;5072925;28;20233;-65
2021/09/14 03:40:22;;;;;;;7.77;5.83;;;;;;;29.17;54.67;97852.03;5086838;28;20209;-66
2021/09/14 03:42:49;;;;;;;7.13;5.67;;;;;;;29.33;54.34;97848.47;5080758;28;20213;-65
2021/09/14 03:45:16;;;;;;;6.60;5.70;;;;;;;29.09;54.96;97850.91;5085604;28;20206;-65
2021/09/14 03:47:44;;;;;;;9.77;6.40;;;;;;;28.99;55.52;97847.69;5080031;28;20225;-65
2021/09/14 03:50:12;;;;;;;8.97;6.27;;;;;;;28.97;55.52;97839.75;5070770;28;20592;-65
2021/09/14 03:52:39;;;;;;;9.50;6.73;;;;;;;28.99;55.52;97848.47;5079906;28;20211;-65
2021/09/14 03:55:09;;;;;;;10.03;6.63;;;;;;;28.80;56.50;97847.16;5083781;28;20216;-65
2021/09/14 03:57:36;;;;;;;9.53;6.80;;;;;;;28.94;55.72;97848.59;5083598;28;20220;-65
2021/09/14 04:00:04;;;;;;;7.53;6.20;;;;;;;28.97;55.35;97839.75;5083677;28;20200;-65
2021/09/14 04:02:36;;;;;;;6.93;5.50;;;;;;;28.83;55.94;97835.53;5082957;28;20216;-65
2021/09/14 04:05:21;;;;;;;9.43;6.03;;;;;;;28.61;56.87;97833.72;5075306;28;20240;-65
2021/09/14 04:07:54;;;;;;;8.70;5.87;;;;;;;28.65;57.11;97836.63;5070772;28;20222;-65
2021/09/14 04:10:22;;;;;;;8.37;5.93;;;;;;;28.71;56.75;97832.59;5084154;28;20225;-65
2021/09/14 04:12:50;;;;;;;9.60;6.53;;;;;;;28.83;56.25;97825.34;5081042;28;20206;-65
2021/09/14 04:15:17;;;;;;;8.40;6.70;;;;;;;28.95;55.77;97841.19;5083532;28;20201;-65
2021/09/14 04:17:44;;;;;;;7.40;6.10;;;;;;;28.90;55.51;97835.84;5080983;28;20230;-65
2021/09/14 04:20:12;;;;;;;9.87;6.73;;;;;;;28.83;55.81;97832.78;5083781;28;20203;-65
2021/09/14 04:22:40;;;;;;;9.63;6.00;;;;;;;28.71;56.17;97832.59;5070933;28;20220;-65
2021/09/14 04:25:08;;;;;;;11.77;7.03;;;;;;;28.70;56.46;97833.72;5077068;28;20220;-65
2021/09/14 04:27:36;;;;;;;11.10;6.23;;;;;;;28.71;56.44;97836.16;5071789;28;20221;-65
2021/09/14 04:30:05;;;;;;;11.73;7.13;;;;;;;28.48;58.02;97828.38;5081989;28;20704;-65
2021/09/14 04:32:32;;;;;;;8.87;6.70;;;;;;;28.58;57.27;97836.31;5081709;28;20209;-65
2021/09/14 04:35:00;;;;;;;9.63;6.57;;;;;;;28.58;57.13;97831.59;5083796;28;20665;-65
2021/09/14 04:37:27;;;;;;;13.40;6.33;;;;;;;28.42;58.28;97824.16;5070230;28;20232;-65
2021/09/14 04:39:54;;;;;;;9.00;6.67;;;;;;;28.53;57.76;97830.97;5070910;28;20199;-65
2021/09/14 04:42:21;;;;;;;9.33;7.27;;;;;;;28.48;57.61;97826.41;5084199;28;20672;-69
2021/09/14 04:44:50;;;;;;;10.63;6.43;;;;;;;28.54;57.18;97832.59;5081606;28;20208;-65
2021/09/14 04:47:18;;;;;;;10.23;7.33;;;;;;;28.39;58.19;97833.03;5072184;28;20234;-68
2021/09/14 04:49:45;;;;;;;9.83;6.13;;;;;;;28.39;57.77;97831.09;5067934;28;20205;-65
2021/09/14 04:52:12;;;;;;;8.37;6.70;;;;;;;28.39;57.63;97828.38;5064330;28;20230;-67
2021/09/14 04:54:40;;;;;;;9.80;7.37;;;;;;;28.49;57.43;97824.50;5071738;28;20205;-70
2021/09/14 04:57:07;;;;;;;8.60;7.00;;;;;;;28.49;57.15;97829.97;5079974;28;20618;-67
2021/09/14 04:59:35;;;;;;;11.63;7.03;;;;;;;28.35;57.95;97829.28;5079864;28;20263;-65
2021/09/14 05:02:04;;;;;;;10.03;7.43;;;;;;;28.38;57.99;97826.72;5077013;28;20200;-65
2021/09/14 05:04:31;;;;;;;8.33;6.43;;;;;;;28.41;58.08;97830.75;5069881;28;20209;-65
2021/09/14 05:06:58;;;;;;;10.23;6.63;;;;;;;28.30;58.54;97829.41;5083094;28;20221;-66
2021/09/14 05:09:26;;;;;;;10.00;7.23;;;;;;;28.03;60.78;97827.72;5080071;28;20209;-65
2021/09/14 05:11:53;;;;;;;10.50;6.87;;;;;;;27.80;61.41;97830.84;5084879;28;20222;-66
2021/09/14 05:14:20;;;;;;;10.17;7.60;;;;;;;28.35;59.30;97823.78;5077765;28;20205;-67
2021/09/14 05:16:47;;;;;;;12.67;6.93;;;;;;;27.86;60.59;97826.81;5085125;28;20514;-65
2021/09/14 05:19:23;;;;;;;10.53;7.53;;;;;;;28.28;60.28;97823.44;5070079;28;20206;-65
2021/09/14 05:21:51;;;;;;;10.30;7.33;;;;;;;28.55;58.52;97825.94;5068630;28;20204;-66
2021/09/14 05:24:18;;;;;;;10.83;7.13;;;;;;;28.36;58.96;97828.97;5060566;28;20747;-66
2021/09/14 05:26:45;;;;;;;12.87;7.60;;;;;;;28.56;58.18;97828.38;5076159;28;20564;-68
2021/09/14 05:29:14;;;;;;;10.67;7.43;;;;;;;28.45;58.88;97837.25;5082725;28;20208;-68
2021/09/14 05:31:41;;;;;;;14.77;7.23;;;;;;;27.93;61.23;97836.22;5079880;28;20311;-66
2021/09/14 05:34:09;;;;;;;12.57;8.07;;;;;;;28.43;59.87;97843.03;5069869;28;20211;-67
2021/09/14 05:36:37;;;;;;;10.87;7.77;;;;;;;28.77;58.21;97847.78;5069027;28;20234;-67
2021/09/14 05:39:05;;;;;;;10.17;7.33;;;;;;;28.92;57.53;97853.63;5085743;22;20189;-72
2021/09/14 05:41:32;;;;;;;10.17;7.27;;;;;;;29.05;57.02;97854.63;5070770;28;20288;-69
2021/09/14 05:43:59;;;;;;;11.07;7.77;;;;;;;29.09;57.05;97850.91;5070918;28;20206;-70
2021/09/14 05:46:26;;;;;;;11.80;7.50;;;;;;;29.08;57.24;97856.75;5070633;28;20209;-68
2021/09/14 05:48:54;;;;;;;11.60;7.73;;;;;;;29.22;57.01;97858.19;5070677;28;20203;-68
2021/09/14 05:51:21;;;;;;;12.37;8.20;;;;;;;29.32;56.96;97855.13;5069488;28;20236;-67
2021/09/14 05:53:50;;;;;;;12.83;8.80;;;;;;;29.50;56.38;97859.44;5060157;28;20199;-68
2021/09/14 05:56:17;;;;;;;10.43;8.03;;;;;;;29.56;56.09;97862.88;5063204;28;20210;-68
2021/09/14 05:58:44;;;;;;;11.97;7.83;;;;;;;29.63;55.40;97857.66;5072743;28;20658;-67
2021/09/14 06:01:13;;;;;;;10.83;7.63;;;;;;;29.80;55.18;97852.94;5073446;28;20851;-68
2021/09/14 06:03:40;;;;;;;11.77;7.60;;;;;;;29.84;54.79;97856.66;5073977;28;20202;-68
2021/09/14 06:06:08;;;;;;;12.83;7.97;;;;;;;29.88;54.47;97856.78;5074252;28;20216;-77
2021/09/14 06:08:36;;;;;;;14.23;8.97;;;;;;;30.05;54.44;97854.00;5074613;28;20296;-72
2021/09/14 06:11:04;;;;;;;16.47;8.27;;;;;;;30.09;54.07;97858.50;5073897;28;20233;-75
2021/09/14 06:13:32;;;;;;;14.50;8.17;;;;;;;30.24;53.83;97863.50;5074020;28;20204;-67
2021/09/14 06:15:59;;;;;;;14.07;7.77;;;;;;;30.40;53.26;97861.00;5074375;28;20296;-70
2021/09/14 06:18:26;;;;;;;13.60;7.87;;;;;;;30.53;52.79;97852.50;5066355;28;20208;-66
2021/09/14 06:20:54;;;;;;;15.03;7.60;;;;;;;30.68;52.38;97853.88;5073498;28;20215;-67
2021/09/14 06:23:21;;;;;;;15.70;7.80;;;;;;;30.69;51.78;97856.31;5073642;28;20213;-66
2021/09/14 06:25:49;;;;;;;12.00;7.37;;;;;;;28.64;57.90;97854.25;5073290;28;20208;-77
2021/09/14 06:28:17;;;;;;;10.73;7.23;;;;;;;29.70;56.50;97853.28;5072904;28;20210;-67
2021/09/14 06:30:44;;;;;;;10.83;6.87;;;;;;;30.02;54.52;97854.66;5072998;28;20235;-66
2021/09/14 06:33:12;;;;;;;7.93;6.40;;;;;;;30.33;53.08;97860.69;5075516;28;20663;-74
2021/09/14 06:35:39;;;;;;;11.87;7.20;;;;;;;31.19;51.14;97862.59;5074023;28;20233;-68
2021/09/14 06:38:06;;;;;;;9.37;6.60;;;;;;;30.20;52.34;97873.53;5073688;28;20757;-67
2021/09/14 06:40:34;;;;;;;10.43;6.37;;;;;;;31.44;49.34;97869.03;5067493;28;20599;-68
2021/09/14 06:43:01;;;;;;;13.83;6.80;;;;;;;31.99;47.69;97875.81;5073246;28;20273;-75
2021/09/14 06:45:30;;;;;;;10.03;6.20;;;;;;;32.43;46.58;97888.75;5074151;28;20212;-67
2021/09/14 06:47:57;;;;;;;12.83;6.80;;;;;;;32.25;47.11;97884.59;5070188;28;20201;-66
2021/09/14 06:50:25;;;;;;;11.23;6.37;;;;;;;31.03;48.64;97886.41;5067864;28;20235;-65
2021/09/14 06:52:52;;;;;;;10.17;6.03;;;;;;;31.81;47.90;97877.13;5072927;28;20241;-65
2021/09/14 06:55:19;;;;;;;12.17;6.70;;;;;;;32.24;47.16;97876.63;5072827;28;20226;-65
2021/09/14 06:57:47;;;;;;;10.60;6.20;;;;;;;32.47;46.25;97878.63;5068781;28;20197;-66
2021/09/14 07:00:15;;;;;;;11.73;6.50;;;;;;;32.81;45.05;97880.94;5063125;28;20237;-67
2021/09/14 07:02:45;;;;;;;9.90;6.60;;;;;;;31.70;48.34;97869.59;5066129;28;20216;-67
2021/09/14 07:05:12;;;;;;;8.97;6.40;;;;;;;32.72;45.66;97885.75;5071308;28;20201;-68
2021/09/14 07:07:40;;;;;;;11.50;6.23;;;;;;;33.02;44.39;97891.84;5070823;28;20201;-68
2021/09/14 07:10:07;;;;;;;8.70;6.03;;;;;;;33.07;43.20;97899.91;5071399;28;20727;-68
2021/09/14 07:12:35;;;;;;;7.97;5.93;;;;;;;32.49;44.20;97901.19;5072640;28;20236;-68
2021/09/14 07:15:03;;;;;;;9.23;6.47;;;;;;;32.25;45.16;97900.34;5071886;28;20217;-67
2021/09/14 07:17:30;;;;;;;8.20;6.33;;;;;;;31.65;46.85;97889.94;5072818;28;20251;-67
2021/09/14 07:19:59;;;;;;;13.93;6.47;;;;;;;32.94;44.15;97901.09;5072367;28;20716;-68
2021/09/14 07:22:26;;;;;;;10.93;6.03;;;;;;;33.24;43.52;97899.66;5073067;28;20649;-68
2021/09/14 07:24:53;;;;;;;9.37;5.93;;;;;;;33.18;43.66;97893.53;5072450;28;20205;-68
2021/09/14 07:27:20;;;;;;;11.10;6.20;;;;;;;32.80;43.63;97890.41;5072728;28;20216;-68
2021/09/14 07:29:50;;;;;;;10.73;5.80;;;;;;;31.64;47.78;97880.03;5073005;28;20579;-68
2021/09/14 07:32:18;;;;;;;13.33;6.60;;;;;;;32.63;44.48;97882.31;5072428;28;20283;-68
2021/09/14 07:34:45;;;;;;;9.67;6.40;;;;;;;33.24;43.90;97883.06;5072179;28;20217;-68
2021/09/14 07:37:14;;;;;;;10.13;6.07;;;;;;;33.63;41.94;97893.28;5072773;28;20206;-68
2021/09/14 07:39:41;;;;;;;11.03;6.37;;;;;;;32.60;45.06;97885.78;5072240;28;20229;-68
2021/09/14 07:42:09;;;;;;;8.20;5.87;;;;;;;33.40;41.69;97897.78;5065907;28;20197;-68
2021/09/14 07:44:37;;;;;;;8.77;5.90;;;;;;;32.27;45.73;97887.00;5072408;28;20212;-68
2021/09/14 07:47:04;;;;;;;8.07;5.30;;;;;;;33.34;43.72;97890.88;5072296;28;20224;-70
2021/09/14 07:49:32;;;;;;;12.37;7.03;;;;;;;33.99;41.82;97901.44;5070330;28;20257;-69
2021/09/14 07:51:59;;;;;;;11.00;6.00;;;;;;;32.96;42.90;97901.53;5064731;28;20234;-68
2021/09/14 07:54:28;;;;;;;10.37;6.07;;;;;;;34.09;41.13;97904.50;5069751;28;20214;-67
2021/09/14 07:56:55;;;;;;;12.80;5.80;;;;;;;32.77;43.67;97893.84;5070191;28;20659;-68
2021/09/14 07:59:22;;;;;;;13.53;5.97;;;;;;;33.98;41.33;97910.91;5071842;28;20226;-70
2021/09/14 08:01:49;;;;;;;8.10;5.70;;;;;;;33.53;41.97;97904.88;5072088;28;20199;-68
2021/09/14 08:04:17;;;;;;;10.13;5.63;;;;;;;33.50;41.24;97909.16;5071079;28;20223;-68
2021/09/14 08:06:44;;;;;;;9.07;5.50;;;;;;;34.45;40.67;97892.38;5070763;28;20657;-69
2021/09/14 08:09:11;;;;;;;10.83;6.30;;;;;;;35.13;38.86;97903.94;5068247;28;20252;-68
2021/09/14 08:11:40;;;;;;;7.83;4.87;;;;;;;33.70;39.57;97913.69;5071991;28;20227;-68
2021/09/14 08:14:07;;;;;;;6.60;4.90;;;;;;;34.90;39.32;97901.03;5072204;28;20221;-68
2021/09/14 08:16:35;;;;;;;6.97;4.93;;;;;;;32.73;41.02;97908.69;5064675;28;20208;-67
2021/09/14 08:19:02;;;;;;;8.53;4.43;;;;;;;34.03;39.67;97913.44;5072537;28;20207;-69
2021/09/14 08:21:29;;;;;;;7.00;4.30;;;;;;;34.54;38.92;97906.88;5070178;28;20202;-68
2021/09/14 08:23:57;;;;;;;5.93;4.00;;;;;;;35.72;37.53;97908.06;5070536;28;20214;-69
2021/09/14 08:26:24;;;;;;;6.83;4.00;;;;;;;33.44;39.81;97915.31;5070357;28;20621;-67
2021/09/14 08:28:53;;;;;;;7.73;4.50;;;;;;;35.59;37.14;97917.69;5064167;28;20215;-70
2021/09/14 08:31:20;;;;;;;4.87;3.60;;;;;;;32.68;43.04;97897.88;5066251;28;20238;-68
2021/09/14 08:33:47;;;;;;;4.93;3.87;;;;;;;35.67;36.92;97913.88;5071740;28;20204;-68
2021/09/14 08:36:15;;;;;;;4.93;3.67;;;;;;;36.68;35.20;97912.25;5070605;28;20212;-68
2021/09/14 08:38:42;;;;;;;4.20;3.45;;;;;;;36.17;35.10;97922.00;5071572;28;20201;-68
2021/09/14 08:41:09;;;;;;;6.57;3.90;;;;;;;36.15;35.19;97915.22;5071694;28;20322;-68
2021/09/14 08:43:38;;;;;;;4.50;3.95;;;;;;;36.15;35.17;97916.03;5064451;28;20211;-68
2021/09/14 08:46:07;;;;;;;5.93;3.92;;;;;;;36.92;34.15;97913.81;5071624;28;20215;-68
2021/09/14 08:48:37;;;;;;;4.47;3.38;;;;;;;-139.38;100.00;63230.50;5071165;28;20209;-68
2021/09/14 08:51:04;;;;;;;8.00;3.90;;;;;;;-139.38;100.00;63230.50;5070826;28;20762;-68
2021/09/14 08:53:34;;;;;;;4.43;3.95;;;;;;;-139.38;100.00;63230.50;5071277;28;20205;-68
2021/09/14 08:56:01;;;;;;;3.95;3.45;;;;;;;-139.38;100.00;63230.50;5071535;28;20201;-70
2021/09/14 08:58:29;;;;;;;4.45;3.47;;;;;;;37.10;100.00;97921.28;5071406;28;20209;-67
2021/09/14 09:00:56;;;;;;;6.05;3.80;;;;;;;37.00;33.00;97916.34;5064548;28;20228;-68
2021/09/14 09:03:27;;;;;;;4.60;3.40;;;;;;;37.19;32.81;97904.31;5069565;28;20228;-69
2021/09/14 09:05:55;;;;;;;4.65;3.75;;;;;;;38.07;31.61;97909.84;5071382;28;20204;-67
2021/09/14 09:08:23;;;;;;;5.68;3.50;;;;;;;36.57;32.79;97913.22;5071151;28;20266;-68
2021/09/14 09:11:02;;;;;;;4.50;3.55;;;;;;;36.59;33.42;97906.13;5062676;28;20688;-67
2021/09/14 09:13:31;;;;;;;5.97;3.30;;;;;;;34.41;38.28;97899.81;5064431;28;20225;-66
2021/09/14 09:15:58;;;;;;;4.60;3.42;;;;;;;-139.38;100.00;63230.50;5065679;28;20209;-68
2021/09/14 09:18:27;;;;;;;4.25;3.55;;;;;;;-139.38;100.00;63230.50;5063962;28;20263;-67
2021/09/14 09:21:02;;;;;;;7.70;3.95;;;;;;;36.80;100.00;85703.56;5069855;28;20231;-68
2021/09/14 09:23:30;;;;;;;4.53;3.47;;;;;;;37.71;33.17;97904.22;5070279;28;20204;-68
2021/09/14 09:26:08;;;;;;;4.63;3.88;;;;;;;36.73;34.30;97903.56;5070414;28;20669;-68
2021/09/14 09:28:35;;;;;;;5.82;3.53;;;;;;;38.67;30.57;97921.59;5068985;28;20205;-71
2021/09/14 09:31:08;;;;;;;7.45;4.25;;;;;;;38.33;30.90;97920.84;5071254;28;20229;-68
2021/09/14 09:33:38;;;;;;;5.03;3.80;;;;;;;35.12;37.40;97903.16;5067202;28;20228;-69
2021/09/14 09:36:06;;;;;;;6.20;4.30;;;;;;;35.12;37.07;97900.38;5075914;28;20215;-69
2021/09/14 09:38:46;;;;;;;7.00;4.20;;;;;;;37.02;33.47;97908.41;5073539;28;20197;-68
2021/09/14 09:41:17;;;;;;;4.18;3.53;;;;;;;35.44;36.72;97907.44;5075258;28;20205;-68
2021/09/14 09:43:44;;;;;;;6.65;4.22;;;;;;;38.28;32.68;97910.06;5073631;28;20387;-68
2021/09/14 09:46:17;;;;;;;12.88;4.15;;;;;;;38.40;31.83;97908.97;5074213;28;20786;-68
2021/09/14 09:48:46;;;;;;;7.10;3.55;;;;;;;39.51;29.43;97911.81;5074587;28;20640;-68
2021/09/14 09:51:14;;;;;;;5.07;3.70;;;;;;;38.62;30.38;97906.00;5074204;28;20541;-68
2021/09/14 09:53:41;;;;;;;4.15;3.45;;;;;;;38.83;29.76;97908.16;5073437;28;20224;-68
2021/09/14 09:56:09;;;;;;;5.07;3.55;;;;;;;38.17;30.86;97903.56;5067125;28;20206;-68
2021/09/14 09:58:36;;;;;;;4.40;3.50;;;;;;;36.58;33.29;97893.38;5072387;28;20209;-68
2021/09/14 10:01:08;;;;;;;6.65;4.00;;;;;;;38.85;29.92;97906.56;5072510;28;20250;-68
2021/09/14 10:03:41;;;;;;;5.32;3.55;;;;;;;39.81;28.98;97906.00;5071698;28;20205;-69
2021/09/14 10:06:10;;;;;;;7.18;3.75;;;;;;;39.70;28.56;97903.13;5079052;28;20668;-69
2021/09/14 10:08:37;;;;;;;21.90;4.72;;;;;;;39.77;27.79;97902.38;5073631;28;20201;-69
2021/09/14 10:11:05;;;;;;;4.35;3.20;;;;;;;39.98;27.94;97897.66;5068718;28;20233;-69
2021/09/14 10:13:33;;;;;;;3.80;3.42;;;;;;;39.54;27.71;97908.25;5070576;28;20231;-68
2021/09/14 10:16:01;;;;;;;3.60;3.20;;;;;;;38.46;28.97;97904.66;5070750;28;20216;-68
2021/09/14 10:18:29;;;;;;;3.55;2.88;;;;;;;38.80;28.87;97898.56;5067149;28;20209;-68
2021/09/14 10:20:57;;;;;;;5.32;3.20;;;;;;;37.12;31.00;97887.53;5067946;28;20242;-69
2021/09/14 10:23:31;;;;;;;3.80;3.20;;;;;;;38.93;28.96;97899.09;5071561;28;20575;-68
2021/09/14 10:26:06;;;;;;;4.57;3.75;;;;;;;39.17;28.28;97909.63;5067070;28;20200;-69
2021/09/14 10:28:44;;;;;;;7.57;3.60;;;;;;;39.83;27.13;97906.41;5068226;28;20577;-67
2021/09/14 10:31:22;;;;;;;7.30;4.00;;;;;;;39.76;27.96;97909.19;5073244;28;20213;-68
2021/09/14 10:34:02;;;;;;;5.35;4.22;;;;;;;39.65;28.39;97903.50;5065083;28;20225;-67
2021/09/14 10:36:30;;;;;;;4.22;3.50;;;;;;;39.49;28.09;97908.63;5073496;28;20274;-68
2021/09/14 10:38:59;;;;;;;3.72;3.35;;;;;;;39.89;28.11;97899.22;5071402;28;20575;-67
2021/09/14 10:41:36;;;;;;;4.20;3.63;;;;;;;39.33;28.12;97898.97;5072516;28;20201;-68
2021/09/14 10:44:07;;;;;;;3.80;3.40;;;;;;;39.67;29.17;97895.53;5066387;28;20232;-67
2021/09/14 10:46:35;;;;;;;5.28;3.40;;;;;;;39.88;28.35;97895.66;5072208;28;20282;-69
2021/09/14 10:49:13;;;;;;;5.03;3.33;;;;;;;38.74;29.89;97902.13;5072043;28;20251;-68
2021/09/14 10:51:41;;;;;;;7.82;3.40;;;;;;;37.75;30.77;97899.50;5069698;28;20249;-67
2021/09/14 10:54:20;;;;;;;4.05;3.10;;;;;;;39.50;28.54;97895.47;5071719;28;20231;-70
2021/09/14 10:56:50;;;;;;;5.28;3.88;;;;;;;37.78;31.44;97891.16;5071655;28;20209;-68
2021/09/14 10:59:18;;;;;;;5.07;3.60;;;;;;;36.90;33.00;97886.38;5066415;28;20591;-73
2021/09/14 11:01:47;;;;;;;5.72;3.85;;;;;;;38.69;30.30;97897.69;5069216;28;20912;-72
2021/09/14 11:04:15;;;;;;;7.82;3.92;;;;;;;40.21;28.53;97900.94;5063955;28;20595;-71
2021/09/14 11:06:48;;;;;;;4.15;3.70;;;;;;;39.80;29.33;97896.00;5068463;28;20208;-73
2021/09/14 11:09:19;;;;;;;6.95;4.10;;;;;;;39.68;29.33;97893.53;5070285;28;20225;-73
2021/09/14 11:11:50;;;;;;;4.25;3.72;;;;;;;39.77;28.55;97902.38;5069093;28;20213;-72
2021/09/14 11:14:17;;;;;;;4.15;3.67;;;;;;;40.93;27.42;97904.16;5068884;28;20246;-70
2021/09/14 11:16:46;;;;;;;4.43;3.58;;;;;;;41.11;26.67;97904.16;5070530;28;20197;-71
2021/09/14 11:19:13;;;;;;;6.82;3.70;;;;;;;40.57;26.84;97901.81;5071904;28;20587;-71
2021/09/14 11:21:45;;;;;;;5.15;3.53;;;;;;;40.10;28.06;97896.47;5071547;28;20202;-71
2021/09/14 11:24:12;;;;;;;6.72;3.78;;;;;;;40.45;27.87;97902.97;5070766;28;20577;-71
2021/09/14 11:26:41;;;;;;;5.38;3.70;;;;;;;40.25;27.54;97906.53;5070739;28;20209;-70
2021/09/14 11:29:08;;;;;;;6.50;3.78;;;;;;;39.28;28.80;97907.69;5069077;28;20221;-71
2021/09/14 11:31:35;;;;;;;5.50;3.60;;;;;;;40.69;27.47;97890.19;5071230;28;20205;-71
2021/09/14 11:34:05;;;;;;;7.15;3.75;;;;;;;39.84;28.49;97896.81;5071767;28;20221;-71
2021/09/14 11:36:33;;;;;;;6.60;3.60;;;;;;;42.01;26.29;97905.09;5071335;28;20212;-70
2021/09/14 11:39:01;;;;;;;6.18;3.70;;;;;;;42.63;25.18;97911.53;5069186;28;20576;-70
2021/09/14 11:41:32;;;;;;;6.65;3.67;;;;;;;41.32;26.47;97907.72;5071918;28;20201;-71
2021/09/14 11:44:01;;;;;;;6.30;3.72;;;;;;;40.09;28.37;97898.50;5066617;28;20777;-69
2021/09/14 11:46:28;;;;;;;6.47;3.92;;;;;;;40.95;27.44;97901.78;5068993;28;20210;-69
2021/09/14 11:48:58;;;;;;;5.75;3.63;;;;;;;41.46;26.55;97912.50;5064968;28;20197;-70
2021/09/14 11:51:26;;;;;;;6.07;3.83;;;;;;;40.19;28.10;97900.53;5067894;28;20213;-70
2021/09/14 11:53:55;;;;;;;6.85;4.10;;;;;;;38.23;30.89;97910.41;5070333;28;20221;-70
2021/09/14 11:56:28;;;;;;;5.45;3.80;;;;;;;38.51;30.44;97902.34;5068141;28;20215;-70
2021/09/14 11:58:55;;;;;;;6.03;3.95;;;;;;;40.52;29.00;97899.38;5066767;28;20202;-71
2021/09/14 12:01:31;;;;;;;7.32;3.70;;;;;;;39.78;29.57;97893.63;5067531;28;20209;-71
2021/09/14 12:03:59;;;;;;;6.38;4.15;;;;;;;40.17;29.45;97902.13;5067279;28;20308;-71
2021/09/14 12:06:27;;;;;;;6.65;3.83;;;;;;;38.72;31.23;97896.94;5071022;28;20650;-71
2021/09/14 12:08:58;;;;;;;6.82;4.00;;;;;;;38.87;31.01;97900.66;5070011;28;20201;-71
2021/09/14 12:11:27;;;;;;;4.53;3.65;;;;;;;40.47;28.49;97897.75;5068052;28;20216;-71
2021/09/14 12:13:57;;;;;;;5.00;3.45;;;;;;;40.16;28.86;97901.31;5065293;28;20275;-69
2021/09/14 12:16:27;;;;;;;4.72;3.85;;;;;;;40.12;29.56;97891.31;5069009;28;20213;-70
2021/09/14 12:18:55;;;;;;;7.30;3.50;;;;;;;38.68;30.58;97898.06;5071597;28;20205;-70
2021/09/14 12:21:23;;;;;;;5.93;3.80;;;;;;;37.77;32.83;97892.34;5069246;28;20201;-70
2021/09/14 12:23:50;;;;;;;4.82;3.95;;;;;;;36.79;33.84;97893.75;5068603;28;20198;-70
2021/09/14 12:26:19;;;;;;;4.88;3.88;;;;;;;37.91;31.57;97897.28;5069899;28;20207;-70
2021/09/14 12:28:47;;;;;;;5.47;3.88;;;;;;;37.63;32.42;97894.97;5071081;28;20205;-70